createdAt,value
2017-11-30T00:00:43.220Z,107.30
2017-11-30T00:03:11.223Z,83.03
2017-11-30T00:05:38.695Z,73.27
2017-11-30T00:08:06.158Z,86.87
2017-11-30T00:10:33.914Z,72.30
2017-11-30T00:13:01.376Z,71.93
2017-11-30T00:15:28.839Z,67.00
2017-11-30T00:17:56.901Z,70.53
2017-11-30T00:20:24.359Z,82.67
2017-11-30T00:22:52.211Z,73.73
2017-11-30T00:25:20.058Z,73.50
2017-11-30T00:27:47.517Z,73.17
2017-11-30T00:30:14.983Z,96.10
2017-11-30T00:32:42.904Z,80.27
2017-11-30T00:35:10.375Z,80.77
2017-11-30T00:37:37.841Z,69.27
2017-11-30T00:40:05.585Z,69.50
2017-11-30T00:42:44.726Z,64.03
2017-11-30T00:45:12.558Z,61.83
2017-11-30T00:47:40.019Z,66.33
2017-11-30T00:50:07.479Z,94.50
2017-11-30T00:52:35.473Z,63.00
2017-11-30T00:55:02.947Z,73.30
2017-11-30T00:57:30.403Z,65.23
2017-11-30T00:59:58.043Z,64.00
2017-11-30T01:02:25.496Z,76.87
2017-11-30T01:04:52.959Z,69.53
2017-11-30T01:07:20.547Z,80.27
2017-11-30T01:09:48.015Z,76.00
2017-11-30T01:12:15.469Z,63.73
2017-11-30T01:14:43.247Z,76.30
2017-11-30T01:17:10.717Z,70.93
2017-11-30T01:19:38.177Z,77.70
2017-11-30T01:22:05.926Z,91.23
2017-11-30T01:24:34.061Z,87.83
2017-11-30T01:27:01.528Z,78.77
2017-11-30T01:29:29.211Z,65.77
2017-11-30T01:31:56.670Z,68.00
2017-11-30T01:34:24.135Z,73.27
2017-11-30T01:36:51.746Z,67.20
2017-11-30T01:39:19.207Z,75.67
2017-11-30T01:41:46.670Z,74.10
2017-11-30T01:44:14.604Z,92.57
2017-11-30T01:46:42.058Z,76.50
2017-11-30T01:49:09.527Z,61.33
2017-11-30T01:51:37.285Z,79.57
2017-11-30T01:54:04.753Z,65.13
2017-11-30T01:56:32.211Z,70.80
2017-11-30T01:58:59.838Z,63.13
2017-11-30T02:01:27.313Z,56.57
2017-11-30T02:03:54.775Z,57.23
2017-11-30T02:06:22.648Z,56.33
2017-11-30T02:08:50.102Z,56.27
2017-11-30T02:11:17.567Z,65.67
2017-11-30T02:13:45.337Z,72.57
2017-11-30T02:16:12.798Z,51.93
2017-11-30T02:18:40.262Z,59.23
2017-11-30T02:21:08.027Z,50.57
2017-11-30T02:23:35.485Z,62.10
2017-11-30T02:26:03.642Z,55.00
2017-11-30T02:28:31.464Z,57.83
2017-11-30T02:30:58.931Z,65.13
2017-11-30T02:33:26.421Z,50.87
2017-11-30T02:35:54.332Z,54.00
2017-11-30T02:38:21.793Z,50.03
2017-11-30T02:40:49.249Z,55.97
2017-11-30T02:43:16.974Z,54.30
2017-11-30T02:45:44.437Z,54.03
2017-11-30T02:48:11.899Z,60.07
2017-11-30T02:50:39.728Z,54.40
2017-11-30T02:53:07.189Z,52.30
2017-11-30T02:55:34.660Z,62.60
2017-11-30T02:58:02.738Z,56.40
2017-11-30T03:00:30.198Z,76.03
2017-11-30T03:02:57.661Z,54.67
2017-11-30T03:05:25.377Z,56.27
2017-11-30T03:07:52.842Z,49.67
2017-11-30T03:10:20.306Z,49.53
2017-11-30T03:12:48.368Z,64.00
2017-11-30T03:15:15.829Z,61.00
2017-11-30T03:17:43.294Z,53.10
2017-11-30T03:20:11.054Z,51.33
2017-11-30T03:22:38.514Z,51.00
2017-11-30T03:25:05.971Z,57.90
2017-11-30T03:27:34.048Z,59.37
2017-11-30T03:30:01.532Z,50.00
2017-11-30T03:32:28.996Z,63.40
2017-11-30T03:34:57.047Z,69.53
2017-11-30T03:37:24.513Z,70.53
2017-11-30T03:39:51.972Z,50.90
2017-11-30T03:42:19.731Z,75.70
2017-11-30T03:44:47.191Z,63.07
2017-11-30T03:47:14.883Z,63.00
2017-11-30T03:49:42.738Z,56.20
2017-11-30T03:52:10.201Z,57.97
2017-11-30T03:54:37.659Z,61.47
2017-11-30T03:57:05.411Z,71.50
2017-11-30T03:59:32.875Z,56.83
2017-11-30T04:02:00.347Z,63.23
2017-11-30T04:04:28.149Z,62.17
2017-11-30T04:06:55.608Z,53.80
2017-11-30T04:09:23.069Z,67.03
2017-11-30T04:11:51.056Z,62.40
2017-11-30T04:14:18.510Z,52.40
2017-11-30T04:16:45.973Z,52.20
2017-11-30T04:19:13.786Z,62.37
2017-11-30T04:21:41.246Z,52.67
2017-11-30T04:24:08.708Z,72.47
2017-11-30T04:26:36.473Z,53.30
2017-11-30T04:29:04.623Z,54.70
2017-11-30T04:31:32.084Z,71.33
2017-11-30T04:33:59.766Z,70.50
2017-11-30T04:36:27.223Z,65.07
2017-11-30T04:38:54.695Z,69.20
2017-11-30T04:41:22.372Z,56.20
2017-11-30T04:43:49.830Z,48.27
2017-11-30T04:46:17.299Z,52.70
2017-11-30T04:48:44.935Z,66.17
2017-11-30T04:51:12.394Z,44.07
2017-11-30T04:53:39.863Z,39.70
2017-11-30T04:56:07.838Z,44.60
2017-11-30T04:58:35.942Z,36.83
2017-11-30T05:01:03.408Z,37.30
2017-11-30T05:03:31.445Z,28.90
2017-11-30T05:05:58.913Z,36.73
2017-11-30T05:08:26.373Z,41.33
2017-11-30T05:10:54.130Z,38.70
2017-11-30T05:13:21.607Z,35.97
2017-11-30T05:15:49.063Z,43.20
2017-11-30T05:18:16.819Z,28.10
2017-11-30T05:20:44.284Z,36.23
2017-11-30T05:23:11.748Z,34.07
2017-11-30T05:25:39.499Z,29.27
2017-11-30T05:28:06.954Z,25.07
2017-11-30T05:30:34.822Z,27.17
2017-11-30T05:33:02.802Z,27.07
2017-11-30T05:35:30.266Z,24.90
2017-11-30T05:37:57.734Z,31.83
2017-11-30T05:40:25.790Z,23.10
2017-11-30T05:42:53.256Z,18.00
2017-11-30T05:45:20.714Z,22.30
2017-11-30T05:47:48.489Z,23.77
2017-11-30T05:50:15.973Z,23.97
2017-11-30T05:52:43.440Z,30.80
2017-11-30T05:55:11.458Z,25.53
2017-11-30T05:57:38.910Z,25.30
2017-11-30T06:00:06.404Z,16.43
2017-11-30T06:02:34.200Z,21.87
2017-11-30T06:05:01.665Z,22.17
2017-11-30T06:07:29.113Z,22.13
2017-11-30T06:09:57.470Z,28.90
2017-11-30T06:12:24.932Z,28.10
2017-11-30T06:14:52.403Z,31.00
2017-11-30T06:17:20.156Z,29.50
2017-11-30T06:19:47.618Z,30.83
2017-11-30T06:22:15.088Z,42.55
2017-11-30T06:24:42.851Z,34.33
2017-11-30T06:27:10.308Z,45.90
2017-11-30T06:29:37.765Z,47.27
2017-11-30T06:32:05.830Z,44.73
2017-11-30T06:34:33.287Z,52.13
2017-11-30T06:37:00.744Z,43.80
2017-11-30T06:39:28.521Z,36.43
2017-11-30T06:41:55.993Z,57.40
2017-11-30T06:44:23.462Z,58.30
2017-11-30T06:46:51.212Z,60.93
2017-11-30T06:49:18.681Z,60.17
2017-11-30T06:51:46.145Z,63.50
2017-11-30T06:54:13.922Z,61.13
2017-11-30T06:56:42.036Z,73.67
2017-11-30T06:59:09.499Z,89.70
2017-11-30T07:01:37.194Z,103.07
2017-11-30T07:04:04.668Z,52.27
2017-11-30T07:06:32.126Z,78.47
2017-11-30T07:09:00.549Z,58.63
2017-11-30T07:11:28.009Z,56.77
2017-11-30T07:13:55.561Z,60.27
2017-11-30T07:16:23.490Z,41.97
2017-11-30T07:18:50.952Z,66.90
2017-11-30T07:21:18.409Z,88.82
2017-11-30T07:23:46.185Z,103.32
2017-11-30T07:26:13.654Z,91.50
2017-11-30T07:35:25.378Z,87.68
2017-11-30T07:37:52.961Z,76.70
2017-11-30T07:40:20.445Z,44.93
2017-11-30T07:42:48.079Z,62.93
2017-11-30T07:45:15.538Z,56.47
2017-11-30T07:47:42.999Z,42.87
2017-11-30T07:50:10.758Z,65.03
2017-11-30T07:52:38.211Z,70.47
2017-11-30T07:55:05.670Z,84.75
2017-11-30T07:57:33.442Z,88.00
2017-11-30T08:00:00.894Z,29.27
2017-11-30T08:02:28.365Z,59.55
2017-11-30T08:04:56.104Z,61.22
2017-11-30T08:07:23.571Z,59.97
2017-11-30T08:09:51.034Z,68.60
2017-11-30T08:12:18.665Z,33.27
2017-11-30T08:16:59.625Z,49.00
2017-11-30T08:19:27.370Z,39.58
2017-11-30T08:21:54.830Z,63.40
2017-11-30T08:24:22.296Z,47.53
2017-11-30T08:26:50.055Z,31.93
2017-11-30T08:29:17.555Z,26.53
2017-11-30T08:31:45.009Z,44.40
2017-11-30T08:34:12.754Z,35.60
2017-11-30T08:36:40.610Z,36.28
2017-11-30T08:39:08.067Z,20.40
2017-11-30T08:41:35.966Z,19.80
2017-11-30T08:44:03.445Z,26.98
2017-11-30T08:46:30.902Z,38.33
2017-11-30T08:48:58.745Z,37.80
2017-11-30T08:51:26.220Z,33.57
2017-11-30T08:53:53.682Z,18.13
2017-11-30T08:56:21.512Z,32.30
2017-11-30T08:58:48.972Z,23.70
2017-11-30T09:01:16.438Z,31.23
2017-11-30T09:03:44.232Z,27.73
2017-11-30T09:06:11.687Z,30.13
2017-11-30T09:08:39.594Z,31.02
2017-11-30T09:11:07.411Z,29.40
2017-11-30T09:13:34.872Z,19.13
2017-11-30T09:16:02.335Z,29.10
2017-11-30T09:18:30.407Z,12.67
2017-11-30T09:20:57.874Z,30.93
2017-11-30T09:23:25.335Z,16.90
2017-11-30T09:25:53.102Z,37.43
2017-11-30T09:28:20.568Z,33.33
2017-11-30T09:30:48.034Z,30.03
2017-11-30T09:33:15.623Z,40.87
2017-11-30T09:35:43.104Z,38.67
2017-11-30T09:38:11.396Z,28.37
2017-11-30T09:40:39.087Z,24.73
2017-11-30T09:43:06.551Z,22.73
2017-11-30T09:45:34.011Z,13.83
2017-11-30T09:48:01.772Z,16.80
2017-11-30T09:50:29.258Z,26.20
2017-11-30T09:52:56.719Z,28.97
2017-11-30T09:55:24.457Z,36.40
2017-11-30T09:57:51.924Z,45.60
2017-11-30T10:00:19.402Z,58.63
2017-11-30T10:02:47.134Z,39.70
2017-11-30T10:05:14.620Z,46.30
2017-11-30T10:07:42.071Z,42.47
2017-11-30T10:10:09.835Z,30.73
2017-11-30T10:12:37.299Z,34.13
2017-11-30T10:15:04.756Z,72.00
2017-11-30T10:17:32.511Z,79.73
2017-11-30T10:19:59.973Z,67.53
2017-11-30T10:22:27.435Z,39.90
2017-11-30T10:24:55.203Z,59.47
2017-11-30T10:27:22.667Z,45.73
2017-11-30T10:29:50.119Z,75.67
2017-11-30T10:32:17.906Z,84.20
2017-11-30T10:34:45.363Z,81.73
2017-11-30T10:37:12.837Z,65.53
2017-11-30T10:39:41.502Z,61.33
2017-11-30T10:42:08.964Z,66.77
2017-11-30T10:44:36.416Z,66.13
2017-11-30T10:47:04.183Z,33.30
2017-11-30T10:49:31.638Z,61.37
2017-11-30T10:51:59.122Z,37.33
2017-11-30T10:54:26.879Z,40.37
2017-11-30T10:56:54.341Z,52.33
2017-11-30T10:59:21.811Z,58.57
2017-11-30T11:01:49.551Z,45.47
2017-11-30T11:04:17.008Z,37.00
2017-11-30T11:06:44.465Z,86.70
2017-11-30T11:09:12.254Z,53.20
2017-11-30T11:11:39.710Z,36.57
2017-11-30T11:14:07.177Z,50.93
2017-11-30T11:16:34.912Z,50.97
2017-11-30T11:19:02.367Z,61.67
2017-11-30T11:34:51.974Z,86.00
2017-11-30T11:41:47.960Z,71.37
2017-11-30T11:46:29.388Z,50.10
2017-11-30T11:48:57.226Z,39.43
2017-11-30T11:51:24.682Z,64.87
2017-11-30T11:53:52.131Z,58.23
2017-11-30T11:56:20.099Z,32.63
2017-11-30T11:58:47.559Z,25.83
2017-11-30T12:01:15.030Z,46.73
2017-11-30T12:03:42.662Z,47.60
2017-11-30T12:06:10.122Z,49.90
2017-11-30T12:08:37.585Z,38.40
2017-11-30T12:11:05.474Z,44.10
2017-11-30T12:13:32.930Z,22.97
2017-11-30T12:16:00.387Z,24.87
2017-11-30T12:18:27.974Z,35.33
2017-11-30T12:20:55.440Z,34.23
2017-11-30T12:23:22.906Z,23.73
2017-11-30T12:25:50.846Z,29.40
2017-11-30T12:28:18.299Z,24.70
2017-11-30T12:30:45.759Z,24.40
2017-11-30T12:33:13.491Z,27.33
2017-11-30T12:35:40.975Z,26.20
2017-11-30T12:38:08.430Z,25.03
2017-11-30T12:40:36.215Z,30.10
2017-11-30T12:43:04.071Z,34.83
2017-11-30T12:45:31.528Z,27.87
2017-11-30T12:47:59.529Z,34.43
2017-11-30T12:50:26.991Z,26.03
2017-11-30T12:52:54.448Z,27.10
2017-11-30T12:57:35.481Z,24.20
2017-11-30T13:00:02.946Z,36.57
2017-11-30T13:02:30.402Z,29.30
2017-11-30T13:04:58.173Z,26.70
2017-11-30T13:07:25.644Z,29.30
2017-11-30T13:09:53.098Z,30.90
2017-11-30T13:12:20.909Z,35.17
2017-11-30T13:14:48.369Z,26.43
2017-11-30T13:17:15.825Z,30.73
2017-11-30T13:19:43.592Z,24.07
2017-11-30T13:22:11.052Z,23.57
2017-11-30T13:24:38.500Z,31.93
2017-11-30T13:27:06.289Z,24.47
2017-11-30T13:29:33.749Z,34.50
2017-11-30T13:32:01.206Z,33.70
2017-11-30T13:34:28.968Z,26.97
2017-11-30T13:36:56.419Z,32.13
2017-11-30T13:39:23.877Z,30.57
2017-11-30T13:41:51.705Z,28.90
2017-11-30T13:44:19.187Z,30.07
2017-11-30T13:46:46.640Z,35.17
2017-11-30T13:49:14.341Z,35.20
2017-11-30T13:51:41.793Z,36.20
2017-11-30T13:54:09.252Z,54.20
2017-11-30T13:56:37.169Z,26.50
2017-11-30T13:59:04.621Z,40.27
2017-11-30T14:01:32.067Z,35.53
2017-11-30T14:04:00.040Z,36.93
2017-11-30T14:06:27.512Z,45.73
2017-11-30T14:08:54.966Z,40.13
2017-11-30T14:11:22.692Z,39.60
2017-11-30T14:13:50.150Z,28.53
2017-11-30T14:16:17.605Z,33.93
2017-11-30T14:18:45.285Z,26.10
2017-11-30T14:21:12.734Z,38.87
2017-11-30T14:23:40.200Z,31.33
2017-11-30T14:26:08.089Z,37.90
2017-11-30T14:28:35.544Z,31.00
2017-11-30T14:31:03.012Z,29.10
2017-11-30T14:35:44.713Z,34.90
2017-11-30T14:38:12.180Z,42.73
2017-11-30T14:40:39.641Z,24.70
2017-11-30T15:03:11.612Z,30.40
2017-11-30T15:05:39.072Z,31.53
2017-11-30T15:08:06.535Z,9.53
2017-11-30T15:10:34.369Z,24.30
2017-11-30T15:13:01.843Z,18.60
2017-11-30T15:15:29.313Z,19.93
2017-11-30T15:17:56.976Z,17.60
2017-11-30T15:20:24.419Z,9.20
2017-11-30T15:22:51.873Z,16.47
2017-11-30T15:25:19.725Z,18.83
2017-11-30T15:27:47.177Z,17.17
2017-11-30T15:30:14.633Z,18.57
2017-11-30T15:32:42.296Z,21.47
2017-11-30T15:35:10.382Z,21.90
2017-11-30T15:37:37.852Z,17.07
2017-11-30T15:40:05.696Z,25.03
2017-11-30T15:42:33.167Z,20.63
2017-11-30T15:45:00.612Z,9.30
2017-11-30T15:47:28.392Z,20.65
2017-11-30T15:49:55.849Z,12.63
2017-11-30T15:52:23.336Z,13.53
2017-11-30T15:54:51.044Z,16.67
2017-11-30T15:57:18.547Z,14.07
2017-11-30T15:59:46.033Z,16.40
2017-11-30T16:02:13.777Z,13.10
2017-11-30T16:04:41.922Z,13.33
2017-11-30T16:07:09.377Z,20.60
2017-11-30T16:09:37.065Z,11.03
2017-11-30T16:12:05.098Z,13.27
2017-11-30T16:41:18.848Z,14.33
2017-11-30T16:43:46.301Z,13.10
2017-11-30T16:46:13.767Z,13.47
2017-11-30T16:48:41.696Z,16.87
2017-11-30T16:51:09.153Z,14.30
2017-11-30T16:53:36.610Z,14.67
2017-11-30T16:56:10.206Z,15.53
2017-11-30T16:58:37.670Z,21.73
2017-11-30T17:01:05.128Z,26.63
2017-11-30T17:03:32.716Z,20.07
2017-11-30T17:06:02.764Z,16.97
2017-11-30T17:08:32.395Z,20.53
2017-11-30T17:11:02.450Z,18.60
2017-11-30T17:13:30.049Z,15.50
2017-11-30T17:15:57.521Z,24.20
2017-11-30T17:18:25.210Z,18.00
2017-11-30T17:20:52.678Z,17.87
2017-11-30T17:23:20.147Z,18.40
2017-11-30T17:25:47.784Z,16.23
2017-11-30T17:28:15.253Z,25.90
2017-11-30T17:30:42.710Z,24.13
2017-11-30T17:33:10.541Z,21.97
2017-11-30T17:35:38.007Z,16.60
2017-11-30T17:38:05.466Z,19.70
2017-11-30T17:40:33.389Z,24.90
2017-11-30T17:43:00.850Z,25.27
2017-11-30T17:45:28.301Z,29.20
2017-11-30T17:47:56.086Z,26.43
2017-11-30T17:50:23.568Z,17.77
2017-11-30T17:52:51.029Z,23.63
2017-11-30T17:55:18.776Z,21.83
2017-11-30T17:57:46.238Z,24.02
2017-11-30T18:00:13.711Z,20.63
2017-11-30T18:02:41.281Z,25.07
2017-11-30T18:05:08.737Z,44.17
2017-11-30T18:07:36.757Z,20.33
2017-11-30T18:10:04.456Z,27.17
2017-11-30T18:12:31.920Z,21.37
2017-11-30T18:14:59.378Z,17.33
2017-11-30T18:17:27.133Z,18.83
2017-11-30T18:19:54.585Z,17.97
2017-11-30T18:22:22.039Z,18.00
2017-11-30T18:24:49.830Z,17.47
2017-11-30T18:27:17.296Z,17.97
2017-11-30T18:29:44.756Z,18.43
2017-11-30T18:32:12.471Z,19.93
2017-11-30T18:34:39.934Z,14.80
2017-11-30T18:37:07.388Z,17.40
2017-11-30T18:39:34.975Z,20.23
2017-11-30T18:42:02.432Z,22.47
2017-11-30T18:44:29.890Z,15.97
2017-11-30T18:46:57.580Z,20.20
2017-11-30T18:49:25.045Z,23.73
2017-11-30T18:51:52.506Z,28.03
2017-11-30T18:54:20.262Z,18.63
2017-11-30T18:56:47.728Z,20.20
2017-11-30T18:59:15.192Z,20.50
2017-11-30T19:01:42.797Z,21.00
2017-11-30T19:04:10.257Z,15.83
2017-11-30T19:06:37.840Z,16.07
2017-11-30T19:09:06.877Z,21.13
2017-11-30T19:11:34.358Z,19.37
2017-11-30T19:14:02.132Z,16.67
2017-11-30T19:16:30.171Z,13.97
2017-11-30T19:18:57.677Z,13.77
2017-11-30T19:21:26.381Z,20.27
2017-11-30T19:23:54.129Z,23.13
2017-11-30T19:26:21.582Z,15.23
2017-11-30T19:28:49.342Z,19.47
2017-11-30T19:31:16.800Z,12.17
2017-11-30T19:33:44.358Z,18.27
2017-11-30T19:36:12.309Z,14.33
2017-11-30T19:38:39.771Z,10.90
2017-11-30T19:41:07.234Z,11.77
2017-11-30T19:43:34.989Z,18.70
2017-11-30T19:46:02.452Z,12.07
2017-11-30T19:48:30.540Z,17.20
2017-11-30T19:50:58.346Z,15.03
2017-11-30T19:53:25.799Z,14.80
2017-11-30T19:55:53.253Z,16.70
2017-11-30T19:58:20.993Z,17.27
2017-11-30T20:00:48.533Z,15.90
2017-11-30T20:03:16.041Z,18.70
2017-11-30T20:05:44.318Z,17.77
2017-11-30T20:08:11.781Z,20.23
2017-11-30T20:10:39.241Z,31.37
2017-11-30T20:13:08.496Z,17.27
2017-11-30T20:15:36.051Z,17.73
2017-11-30T20:18:03.513Z,18.53
2017-11-30T20:20:31.142Z,17.70
2017-11-30T20:22:59.126Z,20.90
2017-11-30T20:25:26.637Z,19.10
2017-11-30T20:27:55.077Z,18.83
2017-11-30T20:30:23.097Z,17.77
2017-11-30T20:32:50.544Z,25.67
2017-11-30T20:35:18.409Z,22.30
2017-11-30T20:37:45.861Z,21.13
2017-11-30T20:40:13.689Z,16.30
2017-11-30T20:42:41.921Z,19.47
2017-11-30T20:45:09.536Z,17.30
2017-11-30T20:47:37.275Z,22.30
2017-11-30T20:50:05.017Z,20.80
2017-11-30T20:52:33.552Z,25.73
2017-11-30T21:03:56.634Z,19.80
2017-11-30T21:06:24.914Z,20.47
2017-11-30T21:08:53.390Z,21.80
2017-11-30T21:11:22.004Z,22.13
2017-11-30T21:13:49.479Z,22.20
2017-11-30T21:16:16.934Z,25.10
2017-11-30T21:18:45.578Z,22.03
2017-11-30T21:21:13.277Z,23.73
2017-11-30T21:23:41.617Z,29.40
2017-11-30T21:26:09.313Z,29.10
2017-11-30T21:28:36.771Z,27.27
2017-11-30T21:31:04.226Z,25.00
2017-11-30T21:33:31.981Z,21.37
2017-11-30T21:35:59.436Z,25.80
2017-11-30T21:38:26.889Z,19.27
2017-11-30T21:40:54.661Z,20.50
2017-11-30T21:43:22.113Z,16.80
2017-11-30T21:54:44.748Z,29.10
2017-11-30T21:57:12.211Z,24.80
2017-11-30T21:59:39.659Z,19.53
2017-11-30T22:02:07.428Z,14.07
2017-11-30T22:04:34.872Z,18.83
2017-11-30T22:07:02.342Z,14.60
2017-11-30T22:09:30.125Z,22.40
2017-11-30T22:11:57.578Z,27.40
2017-11-30T22:14:25.032Z,22.97
2017-11-30T22:16:52.804Z,20.90
2017-11-30T22:19:20.259Z,28.37
2017-11-30T22:21:47.713Z,20.07
2017-11-30T22:24:16.102Z,31.80
2017-11-30T22:26:43.550Z,33.77
2017-11-30T22:29:11.020Z,34.70
2017-11-30T22:31:38.842Z,30.67
2017-11-30T22:34:06.305Z,31.77
2017-11-30T22:38:48.113Z,25.43
2017-11-30T22:43:29.531Z,42.97
2017-11-30T22:45:57.448Z,46.67
2017-11-30T22:48:24.921Z,38.27
2017-11-30T22:50:52.393Z,38.53
2017-11-30T22:53:20.140Z,30.37
2017-11-30T22:55:47.588Z,35.90
2017-11-30T22:58:15.044Z,35.60
2017-11-30T23:00:42.813Z,21.70
2017-11-30T23:03:10.275Z,38.03
2017-11-30T23:05:37.739Z,35.80
2017-11-30T23:08:05.501Z,34.03
2017-11-30T23:10:32.958Z,32.70
2017-11-30T23:13:00.421Z,42.70
2017-11-30T23:15:28.194Z,38.53
2017-11-30T23:17:55.654Z,35.80
2017-11-30T23:20:23.100Z,41.93
2017-11-30T23:22:50.715Z,39.17
2017-11-30T23:25:18.624Z,38.33
2017-11-30T23:27:46.080Z,41.53
2017-11-30T23:30:13.878Z,35.37
2017-11-30T23:32:41.325Z,35.23
2017-11-30T23:35:08.784Z,32.03
2017-11-30T23:37:36.559Z,40.03
2017-11-30T23:40:04.025Z,27.00
2017-11-30T23:42:31.490Z,35.30
2017-11-30T23:44:59.247Z,41.00
2017-11-30T23:47:26.722Z,33.00
2017-11-30T23:49:54.195Z,36.93
2017-11-30T23:52:21.937Z,36.97
2017-11-30T23:54:49.394Z,38.10
2017-11-30T23:57:16.856Z,39.17
2017-11-30T23:59:44.628Z,43.73
